Time;durP1;ratioP1;P1;durP2;ratioP2;P2;SDS_P1;SDS_P2;PMS_P1;PMS_P2;Temp;Humidity;BMP_temperature;BMP_pressure;BME280_temperature;BME280_humidity;BME280_pressure;Samples;Min_cycle;Max_cycle;Signal;HPM_P1;HPM_P2
2022/07/20 00:01:42;;;;;;;8.88;6.85;;;;;;;18.09;84.05;101206.81;5051282;28;20043;-79
2022/07/20 00:04:09;;;;;;;7.97;6.60;;;;;;;18.06;84.63;101201.56;5050692;28;20045;-79
2022/07/20 00:06:36;;;;;;;7.35;6.18;;;;;;;18.00;85.02;101200.94;5023311;28;20045;-82
2022/07/20 00:11:48;;;;;;;7.43;6.28;;;;;;;17.92;86.35;101192.34;5030312;28;20375;-80
2022/07/20 00:14:15;;;;;;;8.38;6.30;;;;;;;17.88;86.69;101190.72;5029934;28;20036;-80
2022/07/20 00:16:41;;;;;;;7.78;6.65;;;;;;;17.84;86.58;101194.50;5048418;28;20037;-80
2022/07/20 00:19:08;;;;;;;10.07;7.90;;;;;;;17.81;87.20;101193.72;5043494;28;20035;-79
2022/07/20 00:21:35;;;;;;;7.90;6.95;;;;;;;17.78;88.19;101197.41;5054068;28;20037;-80
2022/07/20 00:24:02;;;;;;;9.25;7.72;;;;;;;17.73;88.13;101199.38;5034681;28;20040;-80
2022/07/20 00:26:29;;;;;;;8.43;7.22;;;;;;;17.69;88.21;101200.44;5019077;28;20047;-79
2022/07/20 00:28:56;;;;;;;8.75;7.35;;;;;;;17.65;88.41;101198.81;5037176;28;20060;-80
2022/07/20 00:31:22;;;;;;;11.15;8.00;;;;;;;17.66;88.93;101195.22;5029176;28;20441;-80
2022/07/20 00:33:49;;;;;;;9.57;7.45;;;;;;;17.61;89.39;101203.41;5020386;28;20386;-79
2022/07/20 00:36:17;;;;;;;9.30;7.60;;;;;;;17.53;90.11;101202.84;5075499;28;20436;-80
2022/07/20 00:38:44;;;;;;;9.30;7.53;;;;;;;17.49;91.14;101219.06;5032763;28;20067;-79
2022/07/20 00:41:12;;;;;;;8.63;6.60;;;;;;;17.42;91.85;101215.78;5076023;28;20042;-79
2022/07/20 00:44:09;;;;;;;9.73;7.90;;;;;;;17.38;92.92;101214.16;5035930;28;20059;-79
2022/07/20 00:46:38;;;;;;;8.77;7.78;;;;;;;17.32;93.29;101212.63;5036921;28;20075;-79
2022/07/20 00:49:06;;;;;;;9.43;8.05;;;;;;;17.27;93.06;101206.56;5051635;28;20449;-79
2022/07/20 00:51:33;;;;;;;10.07;7.18;;;;;;;17.22;93.38;101199.66;5054967;28;20473;-80
2022/07/20 00:54:00;;;;;;;11.45;7.85;;;;;;;17.24;93.13;101197.81;5045794;28;20049;-79
2022/07/20 00:56:27;;;;;;;8.15;7.13;;;;;;;17.22;93.43;101195.19;5029171;28;20048;-79
2022/07/20 00:58:54;;;;;;;9.43;7.68;;;;;;;17.18;94.02;101196.25;5026168;28;20048;-80
2022/07/20 01:01:21;;;;;;;10.70;8.15;;;;;;;17.12;94.45;101188.47;5014357;28;20037;-80
2022/07/20 01:03:48;;;;;;;9.70;7.85;;;;;;;17.05;94.51;101185.16;5022309;28;20033;-81
2022/07/20 01:06:14;;;;;;;8.60;7.10;;;;;;;17.04;94.74;101177.22;5035311;28;20033;-79
2022/07/20 01:08:41;;;;;;;9.20;7.70;;;;;;;17.01;94.96;101169.34;5050647;28;20106;-81
2022/07/20 01:11:08;;;;;;;10.77;7.82;;;;;;;17.01;94.81;101174.69;5018070;28;20045;-80
2022/07/20 01:13:35;;;;;;;8.77;7.65;;;;;;;16.96;94.99;101176.66;5036468;28;20120;-79
2022/07/20 01:16:01;;;;;;;10.63;7.88;;;;;;;16.91;95.40;101175.97;5052686;28;20036;-80
2022/07/20 01:18:28;;;;;;;12.35;8.57;;;;;;;16.91;95.46;101167.97;5049153;28;20032;-79
2022/07/20 01:20:58;;;;;;;9.70;7.72;;;;;;;16.92;95.70;101159.03;5034182;28;20041;-79
2022/07/20 01:23:25;;;;;;;8.68;7.78;;;;;;;16.89;95.60;101160.88;5023077;28;20099;-80
2022/07/20 01:25:51;;;;;;;9.02;7.47;;;;;;;16.86;96.26;101158.34;5055380;28;20037;-80
2022/07/20 01:28:18;;;;;;;9.10;7.60;;;;;;;16.83;96.51;101154.94;5014716;28;20048;-80
2022/07/20 01:30:45;;;;;;;10.82;8.52;;;;;;;16.81;97.14;101162.97;5046379;28;20036;-79
2022/07/20 01:33:11;;;;;;;10.52;8.00;;;;;;;16.86;97.29;101154.78;5045459;28;20045;-80
2022/07/20 01:35:38;;;;;;;11.13;7.60;;;;;;;16.81;97.32;101154.97;5048199;28;20046;-80
2022/07/20 01:38:05;;;;;;;9.95;8.10;;;;;;;16.79;97.95;101166.63;5025574;28;20044;-79
2022/07/20 01:40:32;;;;;;;8.70;7.80;;;;;;;16.80;97.80;101163.91;5050393;28;20071;-80
2022/07/20 01:42:58;;;;;;;8.93;7.57;;;;;;;16.75;98.66;101162.34;5035484;28;20036;-80
2022/07/20 01:45:25;;;;;;;10.05;7.32;;;;;;;16.73;99.26;101169.53;5037373;28;20510;-80
2022/07/20 01:47:52;;;;;;;10.50;8.32;;;;;;;16.70;99.66;101167.84;5036401;28;20032;-80
2022/07/20 01:50:19;;;;;;;9.70;7.88;;;;;;;16.64;100.00;101167.16;5026040;28;20041;-81
2022/07/20 01:52:46;;;;;;;11.48;7.80;;;;;;;16.66;100.00;101149.31;5030729;28;20056;-79
2022/07/20 01:55:12;;;;;;;9.05;7.32;;;;;;;16.61;100.00;101158.34;5069672;28;20055;-80
2022/07/20 01:57:39;;;;;;;11.35;7.55;;;;;;;16.55;100.00;101152.38;5022795;28;20703;-80
2022/07/20 02:00:08;;;;;;;8.82;7.38;;;;;;;16.55;100.00;101161.25;5044370;28;20118;-80
2022/07/20 02:02:34;;;;;;;8.98;7.55;;;;;;;16.53;100.00;101156.91;5060295;28;20059;-80
2022/07/20 02:05:01;;;;;;;8.57;7.68;;;;;;;16.54;100.00;101163.97;5053673;28;20120;-80
2022/07/20 02:07:28;;;;;;;9.27;8.23;;;;;;;16.49;100.00;101161.50;5031066;28;20047;-80
2022/07/20 02:09:55;;;;;;;11.02;8.98;;;;;;;16.48;100.00;101161.53;5043214;28;20132;-79
2022/07/20 02:12:21;;;;;;;10.15;8.43;;;;;;;16.42;100.00;101159.09;5030027;28;20036;-79
2022/07/20 02:14:48;;;;;;;10.68;8.25;;;;;;;16.44;100.00;101157.25;5053223;28;20522;-79
2022/07/20 02:17:15;;;;;;;11.70;8.43;;;;;;;16.39;100.00;101156.53;5075337;28;20029;-79
2022/07/20 02:19:41;;;;;;;9.60;7.40;;;;;;;16.34;100.00;101151.38;5029422;28;20048;-79
2022/07/20 02:22:10;;;;;;;10.40;7.53;;;;;;;16.39;100.00;101154.72;5038678;28;20049;-80
2022/07/20 02:24:37;;;;;;;9.48;7.70;;;;;;;16.40;100.00;101156.50;5044240;28;20112;-79
2022/07/20 02:27:04;;;;;;;11.45;8.82;;;;;;;16.38;100.00;101154.78;5027775;28;20040;-81
2022/07/20 02:29:31;;;;;;;9.55;7.75;;;;;;;16.30;100.00;101155.06;5051924;28;20103;-80
2022/07/20 02:31:57;;;;;;;9.02;7.50;;;;;;;16.25;100.00;101160.59;5038412;28;20060;-79
2022/07/20 02:34:24;;;;;;;10.48;8.20;;;;;;;16.26;100.00;101156.13;5034212;28;20029;-79
2022/07/20 02:36:50;;;;;;;10.75;8.35;;;;;;;16.21;100.00;101147.41;5046626;28;20047;-79
2022/07/20 02:39:17;;;;;;;10.80;7.97;;;;;;;16.17;100.00;101151.13;5041961;28;20043;-80
2022/07/20 02:41:44;;;;;;;9.80;8.80;;;;;;;16.15;100.00;101145.00;5022087;28;20457;-79
2022/07/20 02:44:10;;;;;;;11.82;8.13;;;;;;;16.20;100.00;101143.00;5046172;28;20101;-81
2022/07/20 02:46:38;;;;;;;9.93;8.27;;;;;;;16.22;100.00;101147.34;5033217;28;20052;-78
2022/07/20 02:49:06;;;;;;;9.55;8.05;;;;;;;16.19;100.00;101143.94;5021442;28;21827;-78
2022/07/20 02:51:33;;;;;;;10.75;8.10;;;;;;;16.21;100.00;101153.59;5036737;28;20672;-81
2022/07/20 02:53:59;;;;;;;9.55;7.93;;;;;;;16.22;100.00;101151.81;5039703;28;20435;-78
2022/07/20 02:56:26;;;;;;;9.98;7.50;;;;;;;16.20;100.00;101151.88;5067980;28;20047;-79
2022/07/20 02:58:54;;;;;;;9.20;7.55;;;;;;;16.14;100.00;101149.41;5031411;28;20469;-79
2022/07/20 03:01:20;;;;;;;11.30;8.50;;;;;;;16.12;100.00;101151.28;5035824;28;20064;-79
2022/07/20 03:03:47;;;;;;;9.40;7.68;;;;;;;16.10;100.00;101158.47;5034711;28;20065;-82
2022/07/20 03:06:15;;;;;;;10.35;8.13;;;;;;;16.10;100.00;101150.47;5020967;28;20044;-78
2022/07/20 03:08:42;;;;;;;10.60;8.05;;;;;;;16.09;100.00;101145.19;5037887;28;21666;-80
2022/07/20 03:11:09;;;;;;;11.70;8.15;;;;;;;16.09;100.00;101145.19;5032643;28;20045;-78
2022/07/20 03:13:35;;;;;;;9.30;7.85;;;;;;;16.11;100.00;101149.53;5030808;28;20029;-81
2022/07/20 03:16:02;;;;;;;10.75;8.35;;;;;;;16.18;100.00;101145.72;5025109;28;20493;-79
2022/07/20 03:18:29;;;;;;;9.98;8.23;;;;;;;16.17;100.00;101138.66;5050943;28;20047;-79
2022/07/20 03:20:55;;;;;;;10.32;8.10;;;;;;;16.18;100.00;101145.72;5033195;28;20087;-79
2022/07/20 03:23:22;;;;;;;41.25;13.13;;;;;;;16.22;100.00;101138.47;5022363;28;20045;-79
2022/07/20 03:25:49;;;;;;;35.97;12.07;;;;;;;16.21;100.00;101131.41;5035895;28;20044;-79
2022/07/20 03:28:18;;;;;;;58.75;14.35;;;;;;;16.23;100.00;101129.59;5035558;28;20041;-79
2022/07/20 03:30:44;;;;;;;26.90;10.25;;;;;;;16.28;100.00;101132.94;5035948;28;20135;-80
2022/07/20 03:33:11;;;;;;;57.22;14.32;;;;;;;16.27;100.00;101133.88;5050728;28;20066;-79
2022/07/20 03:35:38;;;;;;;40.17;13.15;;;;;;;16.33;100.00;101138.97;5050098;28;20070;-80
2022/07/20 03:38:05;;;;;;;48.88;14.95;;;;;;;16.32;100.00;101138.13;5043992;28;20048;-79
2022/07/20 03:40:32;;;;;;;82.45;17.23;;;;;;;16.38;100.00;101136.13;5030161;28;20040;-81
2022/07/20 03:42:58;;;;;;;57.92;16.00;;;;;;;16.41;100.00;101146.72;5048238;28;20036;-80
2022/07/20 03:45:25;;;;;;;67.70;16.88;;;;;;;16.44;100.00;101135.91;5037778;28;20033;-80
2022/07/20 03:47:54;;;;;;;79.07;18.65;;;;;;;16.47;100.00;101146.47;5033932;28;20052;-80
2022/07/20 03:50:21;;;;;;;44.03;13.77;;;;;;;16.51;100.00;101153.44;5034815;28;20044;-80
2022/07/20 03:52:47;;;;;;;35.00;11.90;;;;;;;16.55;100.00;101149.72;5048322;28;20051;-82
2022/07/20 03:55:14;;;;;;;40.80;14.15;;;;;;;16.58;100.00;101147.81;5057866;28;20033;-79
2022/07/20 03:57:41;;;;;;;25.17;10.75;;;;;;;16.61;100.00;101149.50;5040904;28;20489;-79
2022/07/20 04:00:08;;;;;;;24.92;10.80;;;;;;;16.69;100.00;101154.56;5035333;28;20048;-80
2022/07/20 04:02:35;;;;;;;22.85;10.70;;;;;;;16.73;100.00;101150.84;5040961;28;20425;-81
2022/07/20 04:05:02;;;;;;;25.90;11.52;;;;;;;16.77;100.00;101153.34;5050391;28;20090;-80
2022/07/20 04:07:28;;;;;;;30.77;10.98;;;;;;;16.77;100.00;101148.00;5031505;28;20036;-78
2022/07/20 04:09:55;;;;;;;24.23;10.43;;;;;;;16.83;100.00;101150.44;5023584;28;20036;-80
2022/07/20 04:12:23;;;;;;;18.15;9.52;;;;;;;16.87;100.00;101151.19;5054667;28;20063;-80
2022/07/20 04:14:52;;;;;;;17.05;10.00;;;;;;;16.93;100.00;101150.09;5005586;28;20043;-78
2022/07/20 04:17:20;;;;;;;25.45;11.20;;;;;;;16.98;100.00;101142.75;5053238;28;20623;-80
2022/07/20 04:19:47;;;;;;;25.20;10.85;;;;;;;17.05;100.00;101160.28;5051076;28;20397;-79
2022/07/20 04:22:13;;;;;;;23.85;10.88;;;;;;;17.10;100.00;101158.31;5054835;28;20040;-80
2022/07/20 04:24:40;;;;;;;17.83;9.60;;;;;;;17.18;100.00;101150.88;5051749;28;20094;-80
2022/07/20 04:27:07;;;;;;;12.40;8.48;;;;;;;17.21;100.00;101144.53;5035320;28;20045;-80
2022/07/20 04:29:33;;;;;;;18.85;9.48;;;;;;;17.27;100.00;101150.50;5049039;28;20040;-80
2022/07/20 04:32:00;;;;;;;13.65;8.88;;;;;;;17.34;100.00;101149.31;5029867;28;20033;-78
2022/07/20 04:34:27;;;;;;;11.63;8.10;;;;;;;17.39;100.00;101149.13;5036383;28;20599;-79
2022/07/20 04:36:54;;;;;;;11.57;8.45;;;;;;;17.43;100.00;101156.09;5047443;28;20041;-80
2022/07/20 04:39:21;;;;;;;11.32;7.90;;;;;;;17.49;100.00;101160.28;5033599;28;20090;-79
2022/07/20 04:41:47;;;;;;;10.82;8.68;;;;;;;17.56;100.00;101162.66;5038693;28;20047;-79
2022/07/20 04:44:14;;;;;;;11.15;8.70;;;;;;;17.64;100.00;101162.31;5066106;22;20049;-78
2022/07/20 04:46:41;;;;;;;12.50;8.23;;;;;;;17.71;100.00;101164.72;5027548;28;20049;-79
2022/07/20 04:49:08;;;;;;;11.27;8.00;;;;;;;17.80;100.00;101167.94;5014337;28;20036;-78
2022/07/20 04:51:35;;;;;;;11.05;8.75;;;;;;;17.87;100.00;101167.63;5004150;28;20489;-78
2022/07/20 04:54:02;;;;;;;9.57;7.78;;;;;;;17.97;100.00;101165.41;4996842;28;20036;-79
2022/07/20 04:56:29;;;;;;;16.55;8.40;;;;;;;18.12;100.00;101167.44;5013575;28;20037;-78
2022/07/20 04:58:56;;;;;;;11.85;8.95;;;;;;;18.17;100.00;101162.75;5020604;28;20494;-79
2022/07/20 05:01:23;;;;;;;11.95;8.98;;;;;;;18.37;99.90;101161.00;5017750;28;20064;-77
2022/07/20 05:03:51;;;;;;;10.73;8.95;;;;;;;18.46;98.79;101156.09;5001965;28;20135;-77
2022/07/20 05:06:18;;;;;;;15.15;9.15;;;;;;;18.54;99.10;101163.78;5047237;28;20680;-79
2022/07/20 05:08:45;;;;;;;15.68;9.23;;;;;;;18.62;99.12;101160.75;5012518;28;20075;-78
2022/07/20 05:11:13;;;;;;;10.65;9.10;;;;;;;18.76;98.36;101164.56;5012678;28;20047;-78
2022/07/20 05:13:40;;;;;;;11.43;8.75;;;;;;;18.98;96.60;101150.16;5010195;28;20048;-77
2022/07/20 05:16:07;;;;;;;9.63;8.63;;;;;;;19.33;94.01;101152.00;5042850;28;20037;-80
2022/07/20 05:18:33;;;;;;;10.65;8.00;;;;;;;19.57;91.44;101152.63;5035593;28;20055;-79
2022/07/20 05:21:00;;;;;;;9.68;7.70;;;;;;;19.57;92.44;101163.34;5021570;28;20108;-79
2022/07/20 05:23:27;;;;;;;9.60;7.50;;;;;;;19.62;92.45;101165.81;5025961;28;20053;-79
2022/07/20 05:25:55;;;;;;;8.82;7.65;;;;;;;19.69;93.01;101167.25;5023307;28;20498;-79
2022/07/20 05:28:22;;;;;;;10.00;8.18;;;;;;;19.68;91.66;101161.03;5033362;28;20040;-79
2022/07/20 05:30:49;;;;;;;9.15;8.00;;;;;;;19.79;91.46;101168.50;5019648;28;20045;-78
2022/07/20 05:33:16;;;;;;;8.88;7.97;;;;;;;19.96;90.11;101164.97;5017221;28;20548;-78
2022/07/20 05:35:44;;;;;;;9.38;8.07;;;;;;;20.47;87.10;101171.25;5017706;28;20401;-79
2022/07/20 05:38:11;;;;;;;9.30;8.30;;;;;;;20.94;83.84;101165.13;5014058;28;20052;-79
2022/07/20 05:40:44;;;;;;;9.57;8.27;;;;;;;21.23;81.18;101174.22;5025014;28;20533;-79
2022/07/20 05:43:53;;;;;;;;;;;;;;;21.54;79.38;101162.63;5047669;28;20084;-79
2022/07/20 05:46:19;;;;;;;8.93;6.68;;;;;;;21.86;71.46;101161.59;5027189;28;19921;-78
2022/07/20 05:48:46;;;;;;;8.10;6.88;;;;;;;22.81;71.44;101163.00;5048154;28;20041;-79
2022/07/20 05:51:13;;;;;;;9.13;7.38;;;;;;;23.81;68.08;101169.03;5017774;28;20041;-81
2022/07/20 05:53:58;;;;;;;8.95;7.15;;;;;;;24.69;64.90;101162.00;5015200;28;20037;-81
2022/07/20 05:56:25;;;;;;;9.90;7.50;;;;;;;24.87;58.69;101167.91;5019494;28;20134;-81
2022/07/20 05:58:52;;;;;;;7.20;6.50;;;;;;;25.20;59.69;101167.31;5011260;28;20038;-82
2022/07/20 06:01:20;;;;;;;17.77;8.48;;;;;;;26.29;56.75;101162.63;5015522;28;20151;-81
2022/07/20 06:03:47;;;;;;;143.32;27.50;;;;;;;26.91;54.41;101163.09;5016859;28;20498;-80
2022/07/20 06:06:14;;;;;;;35.55;9.77;;;;;;;26.59;54.19;101171.09;5015540;28;20059;-81
2022/07/20 06:08:41;;;;;;;20.50;8.60;;;;;;;26.88;55.13;101162.47;5016024;28;20044;-81
2022/07/20 06:11:31;;;;;;;7.95;6.43;;;;;;;27.77;51.04;101161.47;5016429;28;20037;-81
2022/07/20 06:13:58;;;;;;;7.82;7.03;;;;;;;27.98;52.22;101161.47;5018534;28;20044;-81
2022/07/20 06:16:26;;;;;;;10.15;7.85;;;;;;;28.55;48.53;101168.28;5012172;28;20137;-82
2022/07/20 06:18:56;;;;;;;8.15;6.80;;;;;;;28.34;48.37;101165.63;5019124;28;20037;-81
2022/07/20 06:21:23;;;;;;;8.65;7.22;;;;;;;28.21;49.29;101165.78;5019383;28;20080;-81
2022/07/20 06:23:49;;;;;;;7.90;6.72;;;;;;;28.16;50.08;101173.44;5030480;28;20049;-82
2022/07/20 06:26:17;;;;;;;7.47;6.53;;;;;;;27.99;49.30;101177.63;5030141;28;20379;-81
2022/07/20 06:28:45;;;;;;;10.20;7.05;;;;;;;28.03;50.79;101170.94;5014762;28;20033;-81
2022/07/20 06:31:12;;;;;;;7.32;6.57;;;;;;;28.12;49.11;101168.44;4989326;28;20378;-81
2022/07/20 06:33:39;;;;;;;7.60;6.60;;;;;;;28.24;47.17;101179.09;5018876;28;20047;-82
2022/07/20 06:36:06;;;;;;;7.63;6.50;;;;;;;28.40;47.01;101175.06;5018528;28;20041;-82
2022/07/20 06:38:34;;;;;;;7.90;6.22;;;;;;;28.47;46.00;101181.69;5018215;28;20048;-82
2022/07/20 06:41:01;;;;;;;6.63;6.00;;;;;;;28.46;46.14;101178.13;5013832;28;20128;-82
2022/07/20 06:43:27;;;;;;;6.82;6.20;;;;;;;28.37;44.48;101178.94;5020784;28;20106;-81
2022/07/20 06:45:54;;;;;;;6.80;6.10;;;;;;;28.71;45.05;101179.53;5027997;28;20655;-82
2022/07/20 06:48:21;;;;;;;9.48;6.65;;;;;;;28.91;42.95;101177.78;5019764;28;21545;-81
2022/07/20 06:50:49;;;;;;;7.30;6.03;;;;;;;29.21;42.79;101176.03;5035020;28;20044;-82
2022/07/20 06:53:15;;;;;;;6.10;5.50;;;;;;;29.51;44.40;101175.97;5031882;28;20037;-82
2022/07/20 06:55:43;;;;;;;9.70;6.53;;;;;;;29.67;41.38;101181.72;5000030;28;20127;-82
2022/07/20 06:58:12;;;;;;;8.35;6.20;;;;;;;29.88;42.17;101183.47;5002389;28;20041;-82
2022/07/20 07:00:39;;;;;;;8.23;6.28;;;;;;;30.03;40.88;101189.34;5041772;28;20144;-83
2022/07/20 07:03:06;;;;;;;7.05;5.80;;;;;;;30.15;40.04;101194.50;5014419;28;20489;-83
2022/07/20 07:05:33;;;;;;;7.10;6.40;;;;;;;30.47;40.07;101185.97;5016599;28;20045;-82
2022/07/20 07:08:00;;;;;;;8.02;6.40;;;;;;;30.28;38.08;101194.22;5012614;28;20056;-82
2022/07/20 07:10:26;;;;;;;7.68;6.13;;;;;;;30.34;38.59;101182.69;5002118;28;20068;-82
2022/07/20 07:12:53;;;;;;;6.90;6.05;;;;;;;30.64;38.76;101178.03;5035358;28;20041;-82
2022/07/20 07:15:20;;;;;;;8.57;5.93;;;;;;;31.08;38.55;101182.75;5001380;28;20108;-81
2022/07/20 07:17:48;;;;;;;7.13;6.15;;;;;;;31.38;36.77;101178.03;5024471;28;20068;-82
2022/07/20 07:20:15;;;;;;;6.95;6.30;;;;;;;31.75;35.66;101183.34;5001135;28;20494;-82
2022/07/20 07:22:53;;;;;;;6.88;6.28;;;;;;;32.12;35.68;101182.31;5030426;28;20052;-83
2022/07/20 07:25:19;;;;;;;9.60;6.72;;;;;;;32.23;35.14;101182.09;5016929;28;20033;-82
2022/07/20 07:27:46;;;;;;;8.45;6.30;;;;;;;32.65;34.09;101187.69;5018822;28;20041;-82
2022/07/20 07:30:13;;;;;;;7.57;6.43;;;;;;;32.88;33.53;101177.09;5035314;28;20041;-82
2022/07/20 07:32:39;;;;;;;6.78;5.88;;;;;;;33.16;33.05;101166.75;5021481;28;20414;-82
2022/07/20 07:35:07;;;;;;;6.72;6.03;;;;;;;33.26;32.82;101167.47;5013001;28;20037;-80
2022/07/20 07:37:38;;;;;;;6.50;5.90;;;;;;;33.31;32.22;101162.34;5035629;28;20311;-79
2022/07/20 07:40:05;;;;;;;6.55;5.75;;;;;;;33.40;32.84;101163.25;5013046;28;20046;-80
2022/07/20 07:42:33;;;;;;;8.20;6.28;;;;;;;33.32;31.02;101160.47;4998772;28;20045;-80
2022/07/20 07:45:04;;;;;;;6.50;6.00;;;;;;;33.48;32.49;101160.53;5016184;28;20086;-80
2022/07/20 07:47:31;;;;;;;7.47;6.43;;;;;;;33.81;30.56;101164.16;5042478;28;20037;-80
2022/07/20 07:49:57;;;;;;;7.00;6.03;;;;;;;33.85;30.59;101160.06;5013394;28;20033;-81
2022/07/20 07:52:24;;;;;;;7.05;6.35;;;;;;;33.88;30.27;101161.59;5005495;28;20049;-82
2022/07/20 07:54:51;;;;;;;6.43;5.82;;;;;;;33.98;30.94;101158.72;5046724;28;20044;-80
2022/07/20 07:57:18;;;;;;;7.40;6.30;;;;;;;34.24;30.75;101164.88;5035179;28;20041;-81
2022/07/20 07:59:45;;;;;;;7.35;5.85;;;;;;;34.45;30.68;101155.25;4996810;28;20388;-80
2022/07/20 08:02:11;;;;;;;7.13;5.82;;;;;;;34.49;29.37;101151.16;5034048;28;20045;-80
2022/07/20 08:04:38;;;;;;;18.40;7.78;;;;;;;34.66;28.66;101148.16;5011349;28;20129;-82
2022/07/20 08:07:05;;;;;;;10.63;5.57;;;;;;;34.70;29.20;101155.00;5019353;28;20403;-82
2022/07/20 08:09:32;;;;;;;8.02;6.07;;;;;;;34.83;28.62;101148.13;5021876;28;20049;-82
2022/07/20 08:11:59;;;;;;;7.25;5.78;;;;;;;34.80;27.37;101154.78;5041882;28;20032;-82
2022/07/20 08:14:26;;;;;;;6.10;5.50;;;;;;;35.06;28.81;101153.69;5019254;28;20541;-82
2022/07/20 08:16:54;;;;;;;19.92;7.10;;;;;;;35.33;28.20;101149.63;4994131;28;20141;-82
2022/07/20 08:19:21;;;;;;;10.88;6.38;;;;;;;35.55;28.07;101154.28;5006790;28;20399;-83
2022/07/20 08:21:48;;;;;;;32.22;9.85;;;;;;;35.68;27.94;101148.19;5017118;28;20044;-82
2022/07/20 08:24:16;;;;;;;6.78;6.10;;;;;;;35.90;26.33;101143.72;5040054;28;20040;-84
2022/07/20 08:26:43;;;;;;;5.72;5.03;;;;;;;35.92;26.86;101144.44;5002114;28;20131;-83
2022/07/20 08:29:10;;;;;;;7.65;5.53;;;;;;;36.18;26.98;101144.88;5019993;28;20047;-83
2022/07/20 08:31:38;;;;;;;6.25;5.47;;;;;;;36.06;26.21;101141.69;5009079;28;20042;-81
2022/07/20 08:34:05;;;;;;;6.05;5.45;;;;;;;35.99;26.34;101148.16;5083787;23;20041;-80
2022/07/20 08:36:42;;;;;;;6.72;6.03;;;;;;;35.82;26.08;101144.66;5032032;28;20097;-82
2022/07/20 08:39:09;;;;;;;7.68;5.50;;;;;;;36.14;27.06;101149.00;5041016;23;20052;-82
2022/07/20 08:41:38;;;;;;;6.88;5.20;;;;;;;36.38;26.08;101147.94;5016772;28;20049;-81
2022/07/20 08:44:05;;;;;;;5.70;5.10;;;;;;;36.53;25.31;101150.72;5035242;28;20459;-81
2022/07/20 08:46:33;;;;;;;5.82;4.72;;;;;;;36.46;25.77;101147.84;5041995;28;20597;-81
2022/07/20 08:49:00;;;;;;;7.00;5.40;;;;;;;36.66;25.64;101148.13;5028131;28;20037;-82
2022/07/20 08:51:27;;;;;;;6.00;5.07;;;;;;;36.81;24.85;101139.88;5014209;28;20060;-82
2022/07/20 08:53:55;;;;;;;5.25;4.85;;;;;;;36.88;23.84;101149.97;5028028;28;20048;-81
2022/07/20 08:56:23;;;;;;;5.20;4.70;;;;;;;37.19;23.91;101143.38;5037432;28;20455;-81
2022/07/20 08:58:50;;;;;;;6.70;4.50;;;;;;;37.40;24.42;101143.41;5026866;28;20036;-82
2022/07/20 09:01:24;;;;;;;5.80;5.03;;;;;;;37.56;23.85;101145.06;5035307;28;20047;-83
2022/07/20 09:04:11;;;;;;;5.60;5.05;;;;;;;37.80;23.49;101140.25;5012344;28;20037;-82
2022/07/20 09:06:48;;;;;;;6.25;5.13;;;;;;;37.82;23.04;101140.88;5026314;28;20029;-84
2022/07/20 09:09:16;;;;;;;6.68;4.43;;;;;;;37.88;22.58;101142.88;5047025;28;20037;-82
2022/07/20 09:11:44;;;;;;;5.30;4.57;;;;;;;37.82;22.99;101138.13;5054185;28;20032;-82
2022/07/20 09:14:11;;;;;;;121.75;19.55;;;;;;;38.19;23.11;101137.81;5035220;28;20159;-82
2022/07/20 09:16:43;;;;;;;9.48;4.75;;;;;;;38.41;22.39;101130.34;5020192;28;20049;-80
2022/07/20 09:19:10;;;;;;;5.85;4.60;;;;;;;38.33;22.20;101136.03;5047846;28;20037;-80
2022/07/20 09:21:43;;;;;;;4.95;4.07;;;;;;;38.51;21.85;101132.72;5031597;28;20393;-79
2022/07/20 09:24:10;;;;;;;4.88;4.38;;;;;;;38.58;22.28;101131.72;5057565;28;20501;-79
2022/07/20 09:26:38;;;;;;;6.70;4.75;;;;;;;38.79;21.65;101127.19;5044197;28;20033;-79
2022/07/20 09:29:05;;;;;;;4.68;4.28;;;;;;;38.72;22.04;101126.31;5044055;28;20028;-80
2022/07/20 09:31:35;;;;;;;5.55;4.90;;;;;;;38.88;22.40;101130.63;5030900;28;20459;-79
2022/07/20 09:34:04;;;;;;;5.15;4.65;;;;;;;38.99;21.88;101124.50;5049561;28;20043;-79
2022/07/20 09:36:34;;;;;;;7.25;4.53;;;;;;;38.93;21.32;101128.97;5048187;28;20050;-79
2022/07/20 09:39:14;;;;;;;6.22;4.43;;;;;;;38.85;21.33;101121.72;5036716;28;20055;-78
2022/07/20 09:41:44;;;;;;;5.90;4.20;;;;;;;38.48;21.21;101122.09;5049524;28;20040;-79
2022/07/20 09:44:23;;;;;;;4.60;4.20;;;;;;;38.78;21.20;101117.22;5034211;28;20040;-79
2022/07/20 09:46:50;;;;;;;4.95;4.28;;;;;;;38.87;21.83;101121.50;5031039;28;20036;-79
2022/07/20 09:49:17;;;;;;;5.40;4.47;;;;;;;38.68;21.25;101122.22;5035252;28;20060;-78
2022/07/20 09:51:47;;;;;;;4.65;4.03;;;;;;;38.67;20.67;101114.97;5049784;28;20056;-79
2022/07/20 09:54:18;;;;;;;6.65;4.85;;;;;;;38.29;21.85;101119.03;5049058;28;20048;-78
2022/07/20 09:56:50;;;;;;;9.25;4.43;;;;;;;38.78;22.13;101119.97;5013041;28;20029;-77
2022/07/20 09:59:27;;;;;;;4.90;4.38;;;;;;;39.25;20.69;101113.56;5058986;28;20040;-79
2022/07/20 10:02:04;;;;;;;11.33;5.03;;;;;;;39.61;20.03;101118.78;5039255;28;20029;-80
2022/07/20 10:04:33;;;;;;;;;;;;;;;39.76;19.49;101109.41;5026432;28;20078;-79
2022/07/20 10:07:05;;;;;;;6.80;4.68;;;;;;;39.52;19.20;101108.09;5034443;28;19928;-79
2022/07/20 10:09:35;;;;;;;6.10;3.85;;;;;;;39.25;20.30;101108.03;5035738;28;20044;-80
2022/07/20 10:12:10;;;;;;;5.50;4.30;;;;;;;39.29;20.11;101111.25;5033218;28;20083;-79
2022/07/20 10:14:42;;;;;;;4.50;4.10;;;;;;;39.66;19.57;101105.16;5048553;28;20044;-81
2022/07/20 10:17:15;;;;;;;6.50;4.05;;;;;;;39.88;19.69;101116.03;5041703;28;20056;-81
2022/07/20 10:19:46;;;;;;;4.85;4.18;;;;;;;39.94;19.57;101110.50;5031865;28;20036;-81
2022/07/20 10:22:16;;;;;;;5.97;4.60;;;;;;;40.09;19.15;101109.44;5015323;28;20067;-80
2022/07/20 10:24:44;;;;;;;5.07;4.30;;;;;;;39.97;19.81;101103.69;5050516;28;20032;-80
2022/07/20 10:27:25;;;;;;;8.07;4.40;;;;;;;39.63;20.23;101100.06;5043095;28;20085;-79
2022/07/20 10:30:13;;;;;;;6.25;4.95;;;;;;;39.28;20.38;101092.97;5031399;28;20489;-79
2022/07/20 10:32:58;;;;;;;5.75;4.85;;;;;;;39.61;20.45;101090.28;5070884;28;20033;-80
2022/07/20 10:35:27;;;;;;;;;;;;;;;39.66;19.55;101099.63;5053689;28;20040;-81
2022/07/20 10:37:58;;;;;;;7.50;4.95;;;;;;;39.47;19.26;101097.69;5050105;28;19927;-80
2022/07/20 10:40:30;;;;;;;5.00;4.45;;;;;;;39.68;19.17;101094.72;5049281;28;20047;-81
2022/07/20 10:43:06;;;;;;;5.55;4.78;;;;;;;39.78;18.66;101090.72;5049238;28;20052;-82
2022/07/20 10:46:07;;;;;;;4.82;4.00;;;;;;;39.98;19.32;101086.00;5049270;28;20040;-81
2022/07/20 10:49:02;;;;;;;5.43;4.90;;;;;;;39.85;18.66;101088.78;5037548;28;20513;-81
2022/07/20 10:52:56;;;;;;;5.47;4.30;;;;;;;39.72;18.60;101080.50;5069611;28;20067;-83
2022/07/20 10:56:13;;;;;;;12.35;5.40;;;;;;;39.86;18.45;101088.59;5061634;28;20037;-81
2022/07/20 10:59:23;;;;;;;5.53;4.68;;;;;;;39.86;17.73;101085.81;5040259;28;20049;-81
2022/07/20 11:02:01;;;;;;;6.43;4.30;;;;;;;39.68;17.18;101086.44;5054561;28;20036;-84
2022/07/20 11:04:41;;;;;;;7.65;4.68;;;;;;;39.65;17.46;101084.09;5022581;28;20060;-84
2022/07/20 11:07:31;;;;;;;5.40;4.90;;;;;;;39.85;18.01;101086.84;5066293;28;20048;-84
2022/07/20 11:10:19;;;;;;;6.75;4.70;;;;;;;40.15;17.80;101076.22;5037538;28;20429;-84
2022/07/20 11:13:10;;;;;;;6.93;5.00;;;;;;;40.18;18.13;101075.78;5038850;28;20698;-83
2022/07/20 11:15:51;;;;;;;5.38;4.45;;;;;;;40.02;18.53;101065.16;5037886;23;20049;-84
2022/07/20 11:18:20;;;;;;;6.05;5.00;;;;;;;39.89;18.90;101071.56;5018538;28;20668;-81
2022/07/20 11:21:08;;;;;;;5.10;4.38;;;;;;;39.55;18.50;101066.22;5022037;28;20406;-82
2022/07/20 11:23:46;;;;;;;5.32;4.80;;;;;;;39.93;19.05;101066.44;5014479;28;20044;-79
2022/07/20 11:26:15;;;;;;;24.13;7.00;;;;;;;40.01;18.50;101062.63;5039206;28;20036;-80
2022/07/20 11:28:46;;;;;;;9.10;5.07;;;;;;;40.28;19.22;101068.94;5028793;28;20037;-82
2022/07/20 11:31:15;;;;;;;5.55;4.53;;;;;;;40.56;18.73;101065.94;5043893;28;20067;-81
2022/07/20 11:33:45;;;;;;;4.75;4.20;;;;;;;40.28;17.42;101064.28;5042855;28;20064;-81